createdAt,value
2023-01-09T00:00:19.451Z,2.45
2023-01-09T00:02:45.890Z,1.80
2023-01-09T00:05:13.533Z,1.90
2023-01-09T00:07:39.828Z,1.90
2023-01-09T00:10:06.876Z,1.65
2023-01-09T00:12:33.579Z,2.10
2023-01-09T00:14:59.982Z,1.30
2023-01-09T00:17:26.670Z,1.30
2023-01-09T00:19:52.973Z,1.52
2023-01-09T00:22:19.449Z,1.60
2023-01-09T00:24:45.831Z,1.35
2023-01-09T00:27:14.231Z,1.38
2023-01-09T00:29:42.053Z,1.20
2023-01-09T00:32:10.292Z,1.45
2023-01-09T00:34:37.612Z,1.35
2023-01-09T00:37:11.492Z,1.17
2023-01-09T00:39:38.699Z,0.73
2023-01-09T00:42:05.705Z,0.40
2023-01-09T00:44:34.648Z,0.50
2023-01-09T00:47:04.769Z,0.40
2023-01-09T00:49:36.099Z,0.40
2023-01-09T00:52:03.372Z,0.40
2023-01-09T00:54:30.709Z,0.40
2023-01-09T00:56:57.181Z,0.30
2023-01-09T00:59:23.588Z,0.30
2023-01-09T01:01:50.076Z,0.30
2023-01-09T01:04:35.165Z,0.30
2023-01-09T01:07:20.290Z,0.20
2023-01-09T01:09:46.958Z,0.30
2023-01-09T01:12:13.346Z,0.20
2023-01-09T01:14:39.739Z,0.35
2023-01-09T01:17:06.536Z,0.30
2023-01-09T01:19:33.468Z,0.20
2023-01-09T01:21:59.789Z,0.30
2023-01-09T01:24:26.091Z,0.20
2023-01-09T01:26:52.432Z,0.40
2023-01-09T01:29:18.936Z,0.30
2023-01-09T01:31:45.268Z,0.20
2023-01-09T01:34:11.626Z,0.20
2023-01-09T01:36:38.099Z,0.30
2023-01-09T01:39:04.457Z,0.30
2023-01-09T01:41:30.834Z,0.20
2023-01-09T01:43:57.230Z,0.20
2023-01-09T01:46:23.925Z,0.20
2023-01-09T01:48:52.431Z,0.10
2023-01-09T01:51:21.219Z,0.25
2023-01-09T01:53:53.855Z,0.30
2023-01-09T01:56:26.417Z,0.20
2023-01-09T01:59:05.342Z,0.20
2023-01-09T02:01:33.193Z,0.20
2023-01-09T02:04:00.912Z,0.30
2023-01-09T02:06:27.880Z,0.20
2023-01-09T02:08:54.500Z,0.30
2023-01-09T02:11:21.392Z,0.28
2023-01-09T02:13:48.183Z,0.20
2023-01-09T02:16:14.485Z,0.20
2023-01-09T02:18:41.270Z,0.35
2023-01-09T02:21:19.224Z,0.28
2023-01-09T02:23:57.963Z,0.30
2023-01-09T02:26:42.964Z,0.30
2023-01-09T02:29:18.542Z,0.20
2023-01-09T02:31:47.678Z,0.30
2023-01-09T02:34:14.016Z,0.20
2023-01-09T02:36:43.494Z,0.30
2023-01-09T02:39:12.983Z,0.30
2023-01-09T02:41:58.565Z,0.30
2023-01-09T02:44:26.593Z,0.30
2023-01-09T02:47:02.173Z,0.20
2023-01-09T02:49:28.872Z,0.20
2023-01-09T02:52:04.128Z,0.30
2023-01-09T02:54:44.055Z,0.20
2023-01-09T02:57:10.353Z,0.20
2023-01-09T02:59:44.238Z,0.20
2023-01-09T03:02:16.402Z,0.20
2023-01-09T03:05:03.776Z,0.22
2023-01-09T03:07:53.045Z,0.20
2023-01-09T03:10:22.285Z,0.20
2023-01-09T03:12:51.332Z,0.20
2023-01-09T03:15:18.491Z,0.50
2023-01-09T03:17:46.829Z,0.40
2023-01-09T03:20:15.000Z,0.40
2023-01-09T03:22:47.227Z,0.20
2023-01-09T03:25:14.135Z,0.40
2023-01-09T03:27:40.424Z,0.40
2023-01-09T03:30:07.068Z,0.20
2023-01-09T03:32:33.351Z,0.40
2023-01-09T03:35:01.581Z,0.20
2023-01-09T03:37:27.881Z,0.30
2023-01-09T03:39:54.300Z,0.40
2023-01-09T03:42:20.695Z,0.30
2023-01-09T03:44:47.045Z,0.30
2023-01-09T03:47:13.370Z,0.38
2023-01-09T03:49:39.889Z,0.40
2023-01-09T03:52:06.364Z,0.30
2023-01-09T03:54:32.665Z,0.47
2023-01-09T03:56:59.022Z,0.30
2023-01-09T03:59:25.965Z,0.43
2023-01-09T04:01:52.451Z,0.30
2023-01-09T04:04:18.780Z,0.35
2023-01-09T04:06:45.084Z,0.30
2023-01-09T04:09:11.419Z,0.25
2023-01-09T04:11:37.788Z,0.30
2023-01-09T04:14:04.110Z,0.30
2023-01-09T04:16:30.608Z,0.20
2023-01-09T04:18:57.022Z,0.30
2023-01-09T04:21:23.372Z,0.32
2023-01-09T04:23:49.700Z,0.30
2023-01-09T04:26:15.995Z,0.30
2023-01-09T04:28:42.449Z,0.47
2023-01-09T04:31:08.817Z,0.40
2023-01-09T04:33:35.108Z,0.40
2023-01-09T04:36:01.471Z,0.50
2023-01-09T04:38:27.850Z,0.30
2023-01-09T04:40:54.190Z,0.30
2023-01-09T04:43:20.624Z,0.43
2023-01-09T04:45:47.097Z,0.40
2023-01-09T04:48:13.701Z,0.40
2023-01-09T04:50:40.024Z,0.30
2023-01-09T04:53:06.970Z,0.40
2023-01-09T04:55:33.750Z,0.30
2023-01-09T04:58:00.054Z,0.40
2023-01-09T05:00:26.381Z,0.50
2023-01-09T05:02:52.750Z,0.55
2023-01-09T05:05:19.143Z,0.50
2023-01-09T05:07:45.518Z,0.50
2023-01-09T05:10:12.062Z,0.38
2023-01-09T05:12:39.764Z,0.50
2023-01-09T05:15:07.588Z,0.43
2023-01-09T05:17:34.173Z,0.70
2023-01-09T05:20:00.981Z,0.70
2023-01-09T05:22:27.585Z,0.50
2023-01-09T05:24:53.865Z,0.50
2023-01-09T05:27:20.154Z,0.75
2023-01-09T05:29:46.458Z,0.70
2023-01-09T05:32:12.867Z,0.68
2023-01-09T05:34:39.270Z,0.60
2023-01-09T05:37:05.555Z,0.50
2023-01-09T05:39:31.901Z,0.70
2023-01-09T05:41:58.332Z,0.40
2023-01-09T05:44:24.721Z,0.80
2023-01-09T05:46:51.251Z,0.65
2023-01-09T05:49:17.633Z,0.70
2023-01-09T05:51:43.948Z,0.70
2023-01-09T05:54:10.504Z,0.60
2023-01-09T05:56:36.992Z,0.82
2023-01-09T05:59:03.482Z,0.60
2023-01-09T06:01:29.810Z,0.65
2023-01-09T06:03:56.214Z,0.73
2023-01-09T06:06:24.354Z,0.90
2023-01-09T06:08:50.875Z,0.70
2023-01-09T06:11:17.271Z,0.68
2023-01-09T06:13:43.700Z,0.80
2023-01-09T06:16:10.123Z,0.73
2023-01-09T06:18:36.542Z,1.10
2023-01-09T06:21:02.902Z,0.80
2023-01-09T06:23:29.524Z,0.90
2023-01-09T06:25:55.907Z,1.00
2023-01-09T06:28:22.309Z,1.17
2023-01-09T06:30:52.441Z,1.35
2023-01-09T06:33:19.394Z,2.50
2023-01-09T06:35:45.787Z,1.83
2023-01-09T06:38:12.767Z,0.88
2023-01-09T06:40:39.336Z,1.40
2023-01-09T06:43:06.261Z,1.20
2023-01-09T06:45:32.748Z,0.85
2023-01-09T06:47:59.220Z,1.27
2023-01-09T06:50:25.562Z,1.10
2023-01-09T06:52:52.016Z,1.20
2023-01-09T06:55:18.439Z,0.82
2023-01-09T06:57:44.842Z,1.63
2023-01-09T07:00:11.586Z,1.67
2023-01-09T07:02:37.938Z,1.15
2023-01-09T07:05:07.531Z,1.13
2023-01-09T07:07:34.265Z,1.20
2023-01-09T07:10:00.591Z,1.00
2023-01-09T07:12:26.912Z,0.90
2023-01-09T07:14:53.277Z,1.67
2023-01-09T07:17:19.733Z,1.38
2023-01-09T07:19:46.040Z,1.52
2023-01-09T07:22:12.550Z,1.02
2023-01-09T07:24:38.916Z,1.08
2023-01-09T07:27:05.272Z,0.80
2023-01-09T07:29:31.648Z,1.48
2023-01-09T07:31:57.928Z,1.10
2023-01-09T07:34:24.214Z,0.70
2023-01-09T07:36:51.271Z,1.30
2023-01-09T07:39:17.775Z,1.60
2023-01-09T07:41:44.906Z,0.90
2023-01-09T07:44:11.368Z,1.88
2023-01-09T07:46:37.939Z,1.55
2023-01-09T07:49:04.316Z,1.30
2023-01-09T07:51:30.713Z,0.88
2023-01-09T07:53:57.077Z,1.50
2023-01-09T07:56:23.458Z,1.17
2023-01-09T07:58:50.058Z,0.50
2023-01-09T08:01:16.634Z,0.60
2023-01-09T08:03:43.005Z,1.00
2023-01-09T08:06:10.305Z,0.80
2023-01-09T08:08:36.694Z,0.60
2023-01-09T08:11:03.139Z,0.60
2023-01-09T08:13:29.469Z,1.23
2023-01-09T08:15:55.769Z,0.70
2023-01-09T08:18:22.068Z,1.10
2023-01-09T08:20:49.810Z,0.70
2023-01-09T08:23:16.105Z,0.60
2023-01-09T08:25:42.540Z,0.80
2023-01-09T08:28:09.437Z,0.70
2023-01-09T08:30:36.182Z,0.68
2023-01-09T08:33:02.517Z,0.70
2023-01-09T08:35:28.997Z,0.80
2023-01-09T08:37:55.495Z,0.70
2023-01-09T08:40:22.011Z,0.50
2023-01-09T08:43:06.935Z,0.75
2023-01-09T08:45:51.824Z,0.70
2023-01-09T08:48:18.399Z,1.20
2023-01-09T08:50:44.791Z,0.80
2023-01-09T08:53:11.487Z,1.17
2023-01-09T08:55:37.898Z,0.90
2023-01-09T08:58:04.214Z,0.80
2023-01-09T09:00:30.733Z,0.80
2023-01-09T09:02:58.513Z,0.80
2023-01-09T09:05:25.929Z,0.60
2023-01-09T09:07:56.101Z,0.80
2023-01-09T09:10:23.373Z,0.70
2023-01-09T09:12:54.124Z,0.60
2023-01-09T09:15:24.097Z,0.60
2023-01-09T09:17:55.280Z,0.60
2023-01-09T09:20:22.683Z,0.63
2023-01-09T09:22:49.086Z,0.70
2023-01-09T09:25:15.638Z,0.90
2023-01-09T09:27:42.247Z,0.60
2023-01-09T09:30:09.275Z,0.65
2023-01-09T09:32:35.809Z,0.60
2023-01-09T09:35:02.315Z,0.68
2023-01-09T09:37:28.719Z,0.55
2023-01-09T09:39:55.356Z,0.70
2023-01-09T09:42:58.243Z,0.68
2023-01-09T09:45:31.333Z,0.60
2023-01-09T09:48:16.483Z,0.60
2023-01-09T09:50:54.664Z,0.55
2023-01-09T09:53:41.336Z,0.93
2023-01-09T09:56:11.012Z,0.65
2023-01-09T09:58:38.475Z,0.77
2023-01-09T10:01:05.630Z,0.60
2023-01-09T10:03:41.966Z,0.70
2023-01-09T10:06:28.609Z,0.60
2023-01-09T10:09:02.719Z,0.65
2023-01-09T10:11:47.574Z,0.70
2023-01-09T10:14:23.728Z,1.02
2023-01-09T10:16:53.603Z,0.68
2023-01-09T10:19:32.112Z,0.90
2023-01-09T10:22:04.675Z,0.85
2023-01-09T10:24:46.992Z,1.00
2023-01-09T10:27:21.360Z,0.70
2023-01-09T10:29:50.819Z,0.90
2023-01-09T10:32:25.834Z,0.95
2023-01-09T10:35:04.903Z,0.50
2023-01-09T10:37:34.323Z,1.20
2023-01-09T10:40:26.927Z,0.60
2023-01-09T10:42:57.443Z,0.77
2023-01-09T10:45:25.300Z,0.40
2023-01-09T10:47:53.650Z,0.88
2023-01-09T10:50:25.067Z,0.63
2023-01-09T10:52:52.659Z,0.77
2023-01-09T10:55:23.161Z,0.60
2023-01-09T10:57:51.831Z,1.00
2023-01-09T11:00:22.948Z,0.70
2023-01-09T11:02:50.113Z,0.60
2023-01-09T11:05:23.963Z,0.80
2023-01-09T11:07:55.453Z,0.68
2023-01-09T11:10:24.727Z,0.80
2023-01-09T11:13:12.292Z,0.77
2023-01-09T11:15:38.624Z,0.70
2023-01-09T11:18:18.976Z,0.57
2023-01-09T11:20:45.633Z,0.70
2023-01-09T11:23:25.621Z,0.75
2023-01-09T11:25:53.488Z,0.52
2023-01-09T11:28:20.091Z,0.52
2023-01-09T11:30:56.962Z,0.50
2023-01-09T11:33:43.706Z,0.80
2023-01-09T11:36:13.144Z,0.73
2023-01-09T11:38:55.901Z,0.73
2023-01-09T11:41:23.577Z,0.70
2023-01-09T11:43:51.444Z,0.50
2023-01-09T11:46:35.240Z,0.63
2023-01-09T11:49:02.248Z,1.02
2023-01-09T11:51:33.283Z,0.70
2023-01-09T11:54:18.623Z,1.80
2023-01-09T11:56:46.145Z,0.85
2023-01-09T11:59:13.619Z,0.70
2023-01-09T12:01:43.114Z,1.20
2023-01-09T12:04:09.512Z,0.80
2023-01-09T12:06:39.514Z,0.60
2023-01-09T12:09:07.016Z,0.50
2023-01-09T12:11:42.128Z,0.80
2023-01-09T12:14:11.275Z,0.50
2023-01-09T12:17:03.241Z,0.70
2023-01-09T12:19:41.958Z,0.47
2023-01-09T12:22:26.661Z,0.65
2023-01-09T12:25:11.950Z,0.60
2023-01-09T12:27:53.316Z,0.63
2023-01-09T12:30:22.438Z,0.60
2023-01-09T12:32:51.916Z,0.70
2023-01-09T12:35:31.484Z,0.60
2023-01-09T12:38:12.731Z,0.80
2023-01-09T12:40:39.005Z,0.93
2023-01-09T12:43:24.282Z,0.93
2023-01-09T12:45:55.973Z,0.60
2023-01-09T12:48:31.411Z,0.65
2023-01-09T12:51:00.618Z,0.70
2023-01-09T12:53:29.572Z,0.70
2023-01-09T12:56:00.386Z,0.80
2023-01-09T12:58:38.697Z,0.65
2023-01-09T13:01:09.196Z,0.63
2023-01-09T13:03:44.853Z,0.50
2023-01-09T13:06:14.499Z,0.60
2023-01-09T13:08:42.374Z,0.70
2023-01-09T13:11:19.870Z,0.68
2023-01-09T13:13:58.637Z,0.60
2023-01-09T13:16:27.511Z,0.60
2023-01-09T13:18:58.302Z,0.60
2023-01-09T13:21:26.321Z,0.60
2023-01-09T13:23:55.418Z,0.50
2023-01-09T13:26:24.415Z,0.68
2023-01-09T13:28:53.824Z,0.40
2023-01-09T13:31:38.429Z,0.50
2023-01-09T13:34:11.239Z,0.63
2023-01-09T13:36:46.020Z,0.80
2023-01-09T13:39:20.050Z,0.50
2023-01-09T13:42:06.947Z,0.60
2023-01-09T13:44:34.529Z,0.60
2023-01-09T13:47:02.287Z,0.80
2023-01-09T13:49:44.104Z,0.88
2023-01-09T13:52:25.731Z,0.73
2023-01-09T13:54:58.755Z,1.10
2023-01-09T13:57:28.222Z,0.65
2023-01-09T13:59:57.285Z,0.77
2023-01-09T14:02:36.355Z,0.73
2023-01-09T14:05:04.033Z,0.70
2023-01-09T14:07:31.088Z,0.50
2023-01-09T14:10:05.232Z,0.60
2023-01-09T14:12:38.030Z,0.50
2023-01-09T14:15:04.736Z,0.60
2023-01-09T14:17:37.833Z,1.30
2023-01-09T14:20:09.184Z,0.50
2023-01-09T14:22:45.629Z,0.55
2023-01-09T14:25:24.453Z,0.60
2023-01-09T14:28:08.293Z,1.00
2023-01-09T14:30:52.987Z,0.60
2023-01-09T14:33:19.464Z,0.50
2023-01-09T14:35:48.669Z,0.57
2023-01-09T14:38:21.220Z,0.38
2023-01-09T14:40:50.672Z,0.57
2023-01-09T14:43:43.345Z,0.50
2023-01-09T14:46:15.763Z,0.60
2023-01-09T14:48:50.951Z,0.70
2023-01-09T14:51:18.032Z,0.50
2023-01-09T14:53:44.581Z,0.43
2023-01-09T14:56:24.300Z,0.45
2023-01-09T14:59:02.530Z,0.40
2023-01-09T15:01:32.421Z,0.30
2023-01-09T15:04:01.255Z,0.60
2023-01-09T15:06:27.569Z,0.40
2023-01-09T15:08:59.666Z,0.30
2023-01-09T15:13:53.357Z,0.40
2023-01-09T15:16:20.991Z,0.40
2023-01-09T15:18:50.079Z,0.75
2023-01-09T15:21:19.485Z,0.80
2023-01-09T15:23:45.908Z,0.80
2023-01-09T15:26:26.200Z,0.73
2023-01-09T15:28:53.869Z,0.93
2023-01-09T15:31:23.299Z,0.90
2023-01-09T15:33:51.988Z,1.02
2023-01-09T15:36:19.858Z,1.10
2023-01-09T15:38:46.931Z,0.98
2023-01-09T15:41:36.100Z,0.98
2023-01-09T15:44:03.792Z,0.70
2023-01-09T15:46:30.199Z,0.93
2023-01-09T15:48:56.740Z,0.90
2023-01-09T15:51:23.851Z,0.95
2023-01-09T15:53:50.417Z,0.80
2023-01-09T15:56:24.199Z,0.73
2023-01-09T15:58:54.540Z,0.88
2023-01-09T16:01:40.530Z,1.00
2023-01-09T16:04:14.133Z,1.00
2023-01-09T16:06:48.563Z,0.75
2023-01-09T16:09:16.940Z,0.60
2023-01-09T16:11:46.884Z,0.50
2023-01-09T16:14:16.631Z,0.80
2023-01-09T16:16:43.064Z,1.25
2023-01-09T16:19:29.125Z,1.20
2023-01-09T16:21:59.831Z,1.40
2023-01-09T16:24:27.480Z,1.20
2023-01-09T16:27:12.516Z,1.10
2023-01-09T16:29:44.823Z,1.05
2023-01-09T16:32:18.221Z,1.00
2023-01-09T16:34:45.798Z,0.80
2023-01-09T16:37:13.708Z,1.83
2023-01-09T16:39:40.146Z,1.67
2023-01-09T16:42:28.671Z,1.45
2023-01-09T16:44:55.038Z,1.20
2023-01-09T16:47:21.340Z,1.10
2023-01-09T16:49:47.757Z,1.10
2023-01-09T16:52:15.293Z,1.20
2023-01-09T16:54:43.544Z,1.10
2023-01-09T16:57:13.062Z,0.90
2023-01-09T16:59:39.470Z,0.60
2023-01-09T17:02:10.454Z,0.60
2023-01-09T17:04:36.905Z,1.02
2023-01-09T17:07:03.211Z,1.20
2023-01-09T17:09:29.517Z,1.00
2023-01-09T17:11:55.943Z,0.60
2023-01-09T17:14:22.259Z,0.70
2023-01-09T17:16:48.947Z,0.70
2023-01-09T17:19:17.714Z,0.70
2023-01-09T17:21:44.509Z,0.82
2023-01-09T17:24:29.362Z,0.65
2023-01-09T17:27:14.720Z,1.00
2023-01-09T17:29:41.219Z,1.20
2023-01-09T17:32:09.036Z,0.95
2023-01-09T17:34:35.596Z,1.30
2023-01-09T17:37:04.280Z,1.40
2023-01-09T17:39:30.912Z,0.98
2023-01-09T17:41:58.923Z,0.65
2023-01-09T17:44:26.405Z,0.73
2023-01-09T17:46:52.768Z,0.93
2023-01-09T17:49:20.754Z,1.02
2023-01-09T17:51:47.149Z,0.70
2023-01-09T17:54:13.635Z,0.80
2023-01-09T17:56:43.220Z,0.60
2023-01-09T17:59:13.750Z,0.55
2023-01-09T18:01:40.474Z,0.70
2023-01-09T18:04:07.098Z,1.13
2023-01-09T18:06:33.773Z,0.90
2023-01-09T18:09:00.676Z,2.30
2023-01-09T18:11:27.064Z,1.20
2023-01-09T18:13:56.366Z,1.27
2023-01-09T18:16:24.083Z,1.33
2023-01-09T18:18:54.111Z,1.10
2023-01-09T18:21:21.860Z,1.65
2023-01-09T18:23:50.030Z,1.70
2023-01-09T18:26:22.910Z,2.13
2023-01-09T18:28:54.892Z,1.90
2023-01-09T18:31:24.373Z,1.42
2023-01-09T18:33:52.259Z,1.40
2023-01-09T18:36:20.044Z,1.17
2023-01-09T18:38:49.402Z,1.20
2023-01-09T18:41:15.798Z,1.50
2023-01-09T18:43:42.167Z,1.63
2023-01-09T18:46:08.706Z,1.40
2023-01-09T18:48:35.241Z,1.58
2023-01-09T18:51:02.294Z,1.30
2023-01-09T18:53:28.662Z,1.25
2023-01-09T18:55:55.075Z,2.00
2023-01-09T18:58:21.418Z,1.90
2023-01-09T19:00:50.178Z,1.50
2023-01-09T19:03:16.633Z,1.77
2023-01-09T19:05:42.963Z,1.40
2023-01-09T19:08:09.608Z,1.80
2023-01-09T19:10:35.965Z,1.38
2023-01-09T19:13:03.714Z,1.33
2023-01-09T19:15:30.141Z,1.35
2023-01-09T19:17:56.786Z,1.30
2023-01-09T19:20:24.527Z,1.27
2023-01-09T19:22:51.059Z,1.50
2023-01-09T19:25:17.454Z,1.40
2023-01-09T19:27:43.770Z,1.15
2023-01-09T19:30:10.687Z,1.48
2023-01-09T19:32:39.223Z,1.70
2023-01-09T19:35:05.870Z,1.60
2023-01-09T19:37:32.522Z,2.05
2023-01-09T19:39:58.884Z,2.00
2023-01-09T19:42:25.253Z,1.33
2023-01-09T19:44:51.621Z,1.45
2023-01-09T19:47:18.035Z,1.38
2023-01-09T19:49:44.336Z,1.60
2023-01-09T19:52:10.937Z,1.38
2023-01-09T19:54:37.400Z,1.42
2023-01-09T19:57:03.709Z,1.33
2023-01-09T19:59:30.499Z,1.73
2023-01-09T20:01:57.514Z,1.50
2023-01-09T20:04:26.669Z,1.60
2023-01-09T20:06:53.458Z,2.05
2023-01-09T20:09:27.277Z,1.55
2023-01-09T20:11:53.816Z,1.60
2023-01-09T20:14:20.811Z,1.40
2023-01-09T20:16:52.452Z,1.38
2023-01-09T20:19:18.825Z,1.23
2023-01-09T20:21:45.147Z,1.10
2023-01-09T20:24:16.900Z,1.40
2023-01-09T20:26:43.360Z,1.33
2023-01-09T20:29:09.743Z,1.83
2023-01-09T20:31:36.337Z,1.00
2023-01-09T20:34:03.131Z,1.10
2023-01-09T20:36:30.637Z,1.23
2023-01-09T20:38:58.130Z,1.33
2023-01-09T20:41:25.844Z,1.30
2023-01-09T20:43:55.704Z,1.15
2023-01-09T20:46:23.078Z,1.08
2023-01-09T20:48:49.703Z,1.00
2023-01-09T20:51:15.992Z,0.93
2023-01-09T20:53:46.138Z,0.88
2023-01-09T20:56:12.582Z,0.90
2023-01-09T20:58:39.054Z,0.98
2023-01-09T21:01:09.376Z,0.90
2023-01-09T21:03:35.854Z,1.27
2023-01-09T21:06:09.601Z,1.15
2023-01-09T21:08:36.254Z,1.58
2023-01-09T21:11:02.722Z,0.95
2023-01-09T21:13:29.113Z,0.70
2023-01-09T21:15:59.882Z,0.85
2023-01-09T21:18:26.357Z,0.63
2023-01-09T21:20:53.133Z,0.73
2023-01-09T21:23:20.511Z,1.00
2023-01-09T21:25:48.877Z,1.15
2023-01-09T21:28:16.890Z,1.05
2023-01-09T21:30:44.450Z,1.27
2023-01-09T21:33:10.968Z,0.80
2023-01-09T21:35:37.403Z,0.90
2023-01-09T21:38:03.714Z,1.00
2023-01-09T21:40:30.068Z,0.90
2023-01-09T21:43:15.366Z,0.80
2023-01-09T21:46:20.225Z,0.85
2023-01-09T21:48:46.567Z,0.90
2023-01-09T21:51:13.030Z,1.15
2023-01-09T21:53:39.397Z,1.10
2023-01-09T21:56:05.977Z,1.13
2023-01-09T21:58:32.383Z,1.20
2023-01-09T22:01:00.721Z,1.00
2023-01-09T22:03:27.295Z,0.90
2023-01-09T22:05:53.664Z,1.10
2023-01-09T22:08:20.162Z,1.05
2023-01-09T22:10:53.215Z,1.02
2023-01-09T22:13:20.426Z,0.98
2023-01-09T22:15:48.096Z,1.10
2023-01-09T22:18:14.463Z,0.80
2023-01-09T22:20:41.014Z,0.93
2023-01-09T22:23:07.439Z,0.90
2023-01-09T22:25:35.722Z,0.73
2023-01-09T22:28:02.007Z,0.90
2023-01-09T22:30:28.338Z,0.80
2023-01-09T22:32:54.692Z,0.70
2023-01-09T22:35:21.129Z,0.70
2023-01-09T22:37:47.433Z,0.90
2023-01-09T22:40:13.905Z,1.00
2023-01-09T22:42:40.279Z,0.80
2023-01-09T22:45:07.407Z,0.88
2023-01-09T22:47:33.965Z,0.90
2023-01-09T22:50:01.180Z,0.70
2023-01-09T22:52:28.715Z,0.75
2023-01-09T22:54:55.069Z,0.90
2023-01-09T22:57:21.455Z,1.05
2023-01-09T22:59:47.831Z,1.17
2023-01-09T23:02:14.229Z,0.85
2023-01-09T23:04:40.811Z,0.98
2023-01-09T23:07:07.318Z,0.80
2023-01-09T23:09:33.611Z,1.00
2023-01-09T23:12:03.046Z,0.90
2023-01-09T23:14:29.963Z,0.77
2023-01-09T23:16:56.816Z,0.80
2023-01-09T23:19:23.288Z,0.93
2023-01-09T23:21:49.591Z,1.10
2023-01-09T23:24:16.701Z,1.08
2023-01-09T23:26:43.763Z,0.80
2023-01-09T23:29:11.142Z,1.00
2023-01-09T23:31:37.599Z,0.90
2023-01-09T23:34:04.609Z,1.00
2023-01-09T23:36:30.948Z,1.10
2023-01-09T23:38:57.333Z,0.80
2023-01-09T23:41:43.665Z,0.98
2023-01-09T23:44:10.186Z,1.02
2023-01-09T23:46:36.532Z,0.90
2023-01-09T23:49:02.859Z,1.10
2023-01-09T23:51:29.208Z,1.02
2023-01-09T23:53:55.578Z,1.15
2023-01-09T23:56:21.947Z,1.00
2023-01-09T23:58:48.317Z,1.52
